createdAt,value
2019-04-07T00:00:12.434Z,21.65
2019-04-07T00:02:43.071Z,23.60
2019-04-07T00:05:14.904Z,23.38
2019-04-07T00:07:45.684Z,24.05
2019-04-07T00:10:16.672Z,24.07
2019-04-07T00:12:47.734Z,23.65
2019-04-07T00:15:19.069Z,24.98
2019-04-07T00:17:50.565Z,22.67
2019-04-07T00:20:23.639Z,25.15
2019-04-07T00:22:55.127Z,25.72
2019-04-07T00:25:25.888Z,25.57
2019-04-07T00:27:57.490Z,25.70
2019-04-07T00:30:29.442Z,24.50
2019-04-07T00:33:00.827Z,24.00
2019-04-07T00:35:33.275Z,24.70
2019-04-07T00:38:04.843Z,25.48
2019-04-07T00:40:36.240Z,25.62
2019-04-07T00:43:06.896Z,26.77
2019-04-07T00:45:37.956Z,26.65
2019-04-07T00:48:09.068Z,26.87
2019-04-07T00:50:40.522Z,25.10
2019-04-07T00:53:11.527Z,27.20
2019-04-07T00:55:42.610Z,27.32
2019-04-07T00:58:13.735Z,28.27
2019-04-07T01:00:44.641Z,28.75
2019-04-07T01:03:15.684Z,28.67
2019-04-07T01:05:46.774Z,28.92
2019-04-07T01:08:17.997Z,27.85
2019-04-07T01:10:49.102Z,28.52
2019-04-07T01:13:20.115Z,29.18
2019-04-07T01:15:51.092Z,30.95
2019-04-07T01:18:22.147Z,29.60
2019-04-07T01:20:53.089Z,30.40
2019-04-07T01:23:24.150Z,28.20
2019-04-07T01:25:55.904Z,30.70
2019-04-07T01:28:27.447Z,29.52
2019-04-07T01:30:59.497Z,31.07
2019-04-07T01:33:30.541Z,36.33
2019-04-07T01:36:02.070Z,35.35
2019-04-07T01:38:33.295Z,34.18
2019-04-07T01:41:12.149Z,35.43
2019-04-07T01:43:48.175Z,41.60
2019-04-07T01:46:26.429Z,48.58
2019-04-07T01:49:15.816Z,63.05
2019-04-07T01:51:51.850Z,63.78
2019-04-07T01:54:40.392Z,57.80
2019-04-07T01:57:21.596Z,51.98
2019-04-07T02:00:00.775Z,43.60
2019-04-07T02:02:36.681Z,42.48
2019-04-07T02:05:12.362Z,36.28
2019-04-07T02:07:54.150Z,32.42
2019-04-07T02:10:27.423Z,34.08
2019-04-07T02:13:06.113Z,34.83
2019-04-07T02:15:42.149Z,34.43
2019-04-07T02:18:14.804Z,45.12
2019-04-07T02:20:59.011Z,42.70
2019-04-07T02:23:47.190Z,47.33
2019-04-07T02:26:39.011Z,44.13
2019-04-07T02:29:11.720Z,46.33
2019-04-07T02:31:46.204Z,43.50
2019-04-07T02:34:19.668Z,46.18
2019-04-07T02:37:04.769Z,41.80
2019-04-07T02:39:49.180Z,38.00
2019-04-07T02:42:38.358Z,40.05
2019-04-07T02:45:18.096Z,38.40
2019-04-07T02:47:53.513Z,41.28
2019-04-07T02:50:28.378Z,44.13
2019-04-07T02:53:01.613Z,46.80
2019-04-07T02:55:37.477Z,43.60
2019-04-07T02:58:10.361Z,39.73
2019-04-07T03:00:43.242Z,34.23
2019-04-07T03:03:34.391Z,36.23
2019-04-07T03:06:10.104Z,34.08
2019-04-07T03:08:49.220Z,35.08
2019-04-07T03:11:27.739Z,38.67
2019-04-07T03:14:03.747Z,37.73
2019-04-07T03:16:53.044Z,39.30
2019-04-07T03:19:28.690Z,38.98
2019-04-07T03:22:13.380Z,37.10
2019-04-07T03:24:46.072Z,43.90
2019-04-07T03:27:36.078Z,44.20
2019-04-07T03:30:09.468Z,49.30
2019-04-07T03:33:01.115Z,46.00
2019-04-07T03:35:34.353Z,53.35
2019-04-07T03:38:25.075Z,45.75
2019-04-07T03:40:59.022Z,41.33
2019-04-07T03:43:48.087Z,41.42
2019-04-07T03:46:21.579Z,38.40
2019-04-07T03:49:06.018Z,35.55
2019-04-07T03:51:41.889Z,34.43
2019-04-07T03:54:18.346Z,32.75
2019-04-07T03:56:56.927Z,37.28
2019-04-07T03:59:36.457Z,42.27
2019-04-07T04:02:26.321Z,42.50
2019-04-07T04:04:59.626Z,33.25
2019-04-07T04:07:38.726Z,34.50
2019-04-07T04:10:11.685Z,34.75
2019-04-07T04:12:56.618Z,39.40
2019-04-07T04:15:29.820Z,38.45
2019-04-07T04:18:01.200Z,36.00
2019-04-07T04:20:32.349Z,34.18
2019-04-07T04:23:03.984Z,33.63
2019-04-07T04:25:35.045Z,33.50
2019-04-07T04:28:06.616Z,34.25
2019-04-07T04:30:37.577Z,35.38
2019-04-07T04:33:10.310Z,35.75
2019-04-07T04:35:41.435Z,39.80
2019-04-07T04:38:12.477Z,36.60
2019-04-07T04:40:44.076Z,35.52
2019-04-07T04:43:15.593Z,34.00
2019-04-07T04:45:46.378Z,27.87
2019-04-07T04:48:17.464Z,24.35
2019-04-07T04:50:49.157Z,19.62
2019-04-07T04:53:20.074Z,17.00
2019-04-07T04:55:51.506Z,17.07
2019-04-07T04:58:22.904Z,17.20
2019-04-07T05:00:53.995Z,18.00
2019-04-07T05:03:24.987Z,20.45
2019-04-07T05:05:56.266Z,16.65
2019-04-07T05:08:27.267Z,17.92
2019-04-07T05:10:58.825Z,18.20
2019-04-07T05:13:29.697Z,17.37
2019-04-07T05:16:00.583Z,16.40
2019-04-07T05:18:32.307Z,15.98
2019-04-07T05:21:03.390Z,14.95
2019-04-07T05:23:34.846Z,15.80
2019-04-07T05:26:06.027Z,15.35
2019-04-07T05:28:37.955Z,14.73
2019-04-07T05:31:09.778Z,15.63
2019-04-07T05:33:42.041Z,14.33
2019-04-07T05:36:13.008Z,15.72
2019-04-07T05:38:44.566Z,13.88
2019-04-07T05:41:15.708Z,13.78
2019-04-07T05:43:47.025Z,13.65
2019-04-07T05:46:17.882Z,12.95
2019-04-07T05:48:50.492Z,13.40
2019-04-07T05:51:22.049Z,12.82
2019-04-07T05:53:52.804Z,12.65
2019-04-07T05:56:28.090Z,13.30
2019-04-07T05:58:56.133Z,12.45
2019-04-07T06:01:26.991Z,12.78
2019-04-07T06:03:57.969Z,12.33
2019-04-07T06:06:29.033Z,12.68
2019-04-07T06:08:59.993Z,11.80
2019-04-07T06:11:32.979Z,11.93
2019-04-07T06:14:03.231Z,11.55
2019-04-07T06:16:34.396Z,11.85
2019-04-07T06:19:07.874Z,11.53
2019-04-07T06:21:37.877Z,11.45
2019-04-07T06:24:08.976Z,11.80
2019-04-07T06:26:42.108Z,12.55
2019-04-07T06:29:12.341Z,12.23
2019-04-07T06:31:43.725Z,11.65
2019-04-07T06:34:16.159Z,11.35
2019-04-07T06:36:51.643Z,12.05
2019-04-07T06:39:20.118Z,11.48
2019-04-07T06:41:51.278Z,10.35
2019-04-07T06:44:23.491Z,10.72
2019-04-07T06:46:59.877Z,10.90
2019-04-07T06:49:33.782Z,11.45
2019-04-07T06:52:21.765Z,10.88
2019-04-07T06:55:00.519Z,10.10
2019-04-07T06:57:37.520Z,10.38
2019-04-07T07:00:26.038Z,9.90
2019-04-07T07:02:59.643Z,10.40
2019-04-07T07:05:49.504Z,9.73
2019-04-07T07:08:45.857Z,9.45
2019-04-07T07:11:32.374Z,10.00
2019-04-07T07:14:14.350Z,8.98
2019-04-07T07:17:00.381Z,8.05
2019-04-07T07:19:42.286Z,7.92
2019-04-07T07:22:16.628Z,8.50
2019-04-07T07:24:47.785Z,8.15
2019-04-07T07:27:18.511Z,7.62
2019-04-07T07:29:51.922Z,7.42
2019-04-07T07:32:22.577Z,6.60
2019-04-07T07:34:55.207Z,7.83
2019-04-07T07:37:26.907Z,7.28
2019-04-07T07:39:57.703Z,6.53
2019-04-07T07:42:28.954Z,6.67
2019-04-07T07:44:59.811Z,7.00
2019-04-07T07:47:31.353Z,7.53
2019-04-07T07:50:04.965Z,7.20
2019-04-07T07:52:35.118Z,7.10
2019-04-07T07:55:07.544Z,7.28
2019-04-07T07:57:38.603Z,6.60
2019-04-07T08:00:10.316Z,7.87
2019-04-07T08:02:41.056Z,6.92
2019-04-07T08:05:12.439Z,7.50
2019-04-07T08:07:45.738Z,8.00
2019-04-07T08:10:17.061Z,8.90
2019-04-07T08:12:49.479Z,7.95
2019-04-07T08:15:22.834Z,8.15
2019-04-07T08:17:53.130Z,8.73
2019-04-07T08:20:24.265Z,8.45
2019-04-07T08:22:55.129Z,8.33
2019-04-07T08:25:26.203Z,7.97
2019-04-07T08:27:57.440Z,7.90
2019-04-07T08:30:29.140Z,8.20
2019-04-07T08:33:01.294Z,8.80
2019-04-07T08:35:38.223Z,9.65
2019-04-07T08:38:06.705Z,9.73
2019-04-07T08:40:39.060Z,9.43
2019-04-07T08:43:09.969Z,9.18
2019-04-07T08:45:41.431Z,9.43
2019-04-07T08:48:12.382Z,9.45
2019-04-07T08:50:43.487Z,9.48
2019-04-07T08:53:14.827Z,9.15
2019-04-07T08:55:48.552Z,8.50
2019-04-07T08:58:25.719Z,8.95
2019-04-07T09:00:55.914Z,9.33
2019-04-07T09:03:27.030Z,8.63
2019-04-07T09:05:58.533Z,8.35
2019-04-07T09:08:29.603Z,8.40
2019-04-07T09:11:02.169Z,8.38
2019-04-07T09:13:34.147Z,8.85
2019-04-07T09:16:17.363Z,8.43
2019-04-07T09:19:08.336Z,8.50
2019-04-07T09:21:56.879Z,7.97
2019-04-07T09:24:33.429Z,8.55
2019-04-07T09:27:09.085Z,8.83
2019-04-07T09:29:58.902Z,8.75
2019-04-07T09:32:31.149Z,8.17
2019-04-07T09:35:04.763Z,8.73
2019-04-07T09:37:37.831Z,8.90
2019-04-07T09:40:16.398Z,8.10
2019-04-07T09:43:04.185Z,9.03
2019-04-07T09:45:39.375Z,9.15
2019-04-07T09:48:13.817Z,9.00
2019-04-07T09:50:49.590Z,9.08
2019-04-07T09:53:22.971Z,9.58
2019-04-07T09:56:05.747Z,9.15
2019-04-07T09:58:54.759Z,9.18
2019-04-07T10:01:28.751Z,9.08
2019-04-07T10:04:01.315Z,9.40
2019-04-07T10:06:39.824Z,8.30
2019-04-07T10:09:21.775Z,9.20
2019-04-07T10:12:00.457Z,7.92
2019-04-07T10:14:48.788Z,9.58
2019-04-07T10:17:22.169Z,8.50
2019-04-07T10:20:06.778Z,9.78
2019-04-07T10:22:39.571Z,9.53
2019-04-07T10:25:15.540Z,8.78
2019-04-07T10:27:50.987Z,8.70
2019-04-07T10:30:42.018Z,8.93
2019-04-07T10:33:31.607Z,8.78
2019-04-07T10:36:22.861Z,8.33
2019-04-07T10:39:07.264Z,8.93
2019-04-07T10:53:19.525Z,8.30
2019-04-07T10:56:05.575Z,7.70
2019-04-07T10:58:43.950Z,9.00
2019-04-07T11:01:36.349Z,8.53
2019-04-07T11:04:09.496Z,8.80
2019-04-07T11:06:48.322Z,8.85
2019-04-07T11:09:36.875Z,8.45
2019-04-07T11:12:19.886Z,8.40
2019-04-07T11:14:59.031Z,8.25
2019-04-07T11:17:47.802Z,8.08
2019-04-07T11:20:20.529Z,8.00
2019-04-07T11:22:58.916Z,8.98
2019-04-07T11:25:34.679Z,7.75
2019-04-07T11:28:24.225Z,9.25
2019-04-07T11:30:59.200Z,8.58
2019-04-07T11:33:47.857Z,8.85
2019-04-07T11:36:24.389Z,7.95
2019-04-07T11:39:13.464Z,8.58
2019-04-07T11:41:57.385Z,8.20
2019-04-07T11:44:35.711Z,8.88
2019-04-07T11:47:08.835Z,8.63
2019-04-07T11:49:42.841Z,8.10
2019-04-07T11:52:31.039Z,7.60
2019-04-07T11:55:03.535Z,7.80
2019-04-07T11:57:43.293Z,8.35
2019-04-07T12:00:30.042Z,8.85
2019-04-07T12:03:19.207Z,8.03
2019-04-07T12:05:52.266Z,7.53
2019-04-07T12:08:42.862Z,8.15
2019-04-07T12:11:18.220Z,8.00
2019-04-07T12:14:07.371Z,8.10
2019-04-07T12:16:57.974Z,8.00
2019-04-07T12:19:32.227Z,7.70
2019-04-07T12:22:14.314Z,7.17
2019-04-07T12:24:57.493Z,8.38
2019-04-07T12:27:27.094Z,7.72
2019-04-07T12:30:16.493Z,9.00
2019-04-07T12:32:51.758Z,8.55
2019-04-07T12:35:36.869Z,9.25
2019-04-07T12:38:21.414Z,9.13
2019-04-07T12:41:04.053Z,9.23
2019-04-07T12:43:49.199Z,8.90
2019-04-07T12:46:36.504Z,7.70
2019-04-07T12:49:21.192Z,8.33
2019-04-07T12:52:10.166Z,8.30
2019-04-07T12:54:48.676Z,8.65
2019-04-07T12:57:24.224Z,9.10
2019-04-07T13:00:02.576Z,8.68
2019-04-07T13:02:38.230Z,8.15
2019-04-07T13:05:13.903Z,8.13
2019-04-07T13:07:51.369Z,8.13
2019-04-07T13:31:14.553Z,7.70
2019-04-07T13:33:59.547Z,7.70
2019-04-07T13:36:50.983Z,7.65
2019-04-07T13:39:22.692Z,8.85
2019-04-07T13:42:05.250Z,8.08
2019-04-07T13:44:55.847Z,7.65
2019-04-07T13:47:28.758Z,8.35
2019-04-07T13:50:17.970Z,8.75
2019-04-07T13:52:54.161Z,8.35
2019-04-07T13:55:24.463Z,8.88
2019-04-07T13:58:13.958Z,7.87
2019-04-07T14:01:02.026Z,8.07
2019-04-07T14:03:35.561Z,8.48
2019-04-07T14:06:20.565Z,8.15
2019-04-07T14:08:53.070Z,7.95
2019-04-07T14:11:32.766Z,8.33
2019-04-07T14:14:05.688Z,8.08
2019-04-07T14:16:54.562Z,7.37
2019-04-07T14:19:37.076Z,8.05
2019-04-07T14:22:33.203Z,7.60
2019-04-07T14:25:25.660Z,8.10
2019-04-07T14:28:13.381Z,8.20
2019-04-07T14:30:45.926Z,8.30
2019-04-07T14:33:34.629Z,7.85
2019-04-07T14:36:12.879Z,7.75
2019-04-07T14:38:45.572Z,8.03
2019-04-07T14:41:21.412Z,8.68
2019-04-07T14:43:59.771Z,7.37
2019-04-07T14:46:42.765Z,7.33
2019-04-07T14:49:17.416Z,7.47
2019-04-07T14:51:57.033Z,7.60
2019-04-07T14:54:29.532Z,8.08
2019-04-07T14:57:11.652Z,7.58
2019-04-07T15:00:01.893Z,9.15
2019-04-07T15:02:33.466Z,7.67
2019-04-07T15:05:20.507Z,7.30
2019-04-07T15:08:07.219Z,7.70
2019-04-07T15:10:39.852Z,7.12
2019-04-07T15:13:17.113Z,7.17
2019-04-07T15:15:50.185Z,7.47
2019-04-07T15:18:21.422Z,7.70
2019-04-07T15:20:57.305Z,7.67
2019-04-07T15:23:31.720Z,6.72
2019-04-07T15:26:02.173Z,6.90
2019-04-07T15:28:34.041Z,7.08
2019-04-07T15:31:04.971Z,6.67
2019-04-07T15:33:36.032Z,7.12
2019-04-07T15:36:09.137Z,6.92
2019-04-07T15:38:41.422Z,6.70
2019-04-07T15:41:15.294Z,7.67
2019-04-07T15:43:54.810Z,7.28
2019-04-07T15:46:25.691Z,7.47
2019-04-07T15:48:57.121Z,7.42
2019-04-07T15:51:28.318Z,7.97
2019-04-07T15:53:59.568Z,7.75
2019-04-07T15:56:30.403Z,8.65
2019-04-07T15:59:02.370Z,10.08
2019-04-07T16:01:33.685Z,8.60
2019-04-07T16:04:06.120Z,7.70
2019-04-07T16:06:37.178Z,8.53
2019-04-07T16:09:14.099Z,8.20
2019-04-07T16:11:42.207Z,7.85
2019-04-07T16:14:15.058Z,7.70
2019-04-07T16:16:46.148Z,7.62
2019-04-07T16:19:21.974Z,7.55
2019-04-07T16:21:49.423Z,8.28
2019-04-07T16:24:21.904Z,8.30
2019-04-07T16:26:52.955Z,10.80
2019-04-07T16:29:23.815Z,18.07
2019-04-07T16:31:57.072Z,16.93
2019-04-07T16:34:28.609Z,16.25
2019-04-07T16:37:02.449Z,15.63
2019-04-07T16:39:37.749Z,17.23
2019-04-07T16:42:15.264Z,11.78
2019-04-07T16:44:50.778Z,11.80
2019-04-07T16:47:32.753Z,13.03
2019-04-07T16:50:04.431Z,24.37
2019-04-07T16:52:39.814Z,16.62
2019-04-07T16:55:20.215Z,10.88
2019-04-07T16:57:54.999Z,17.73
2019-04-07T17:00:26.044Z,15.58
2019-04-07T17:02:56.954Z,14.47
2019-04-07T17:05:28.977Z,16.30
2019-04-07T17:07:59.654Z,16.90
2019-04-07T17:10:33.869Z,11.97
2019-04-07T17:13:13.882Z,11.40
2019-04-07T17:15:39.596Z,12.80
2019-04-07T17:18:11.182Z,13.80
2019-04-07T17:20:42.358Z,15.38
2019-04-07T17:23:13.381Z,17.98
2019-04-07T17:25:45.124Z,14.05
2019-04-07T17:28:16.297Z,13.35
2019-04-07T17:30:50.648Z,15.28
2019-04-07T17:33:23.347Z,15.43
2019-04-07T17:35:55.356Z,12.10
2019-04-07T17:38:36.930Z,10.90
2019-04-07T17:41:09.119Z,10.90
2019-04-07T17:43:59.777Z,12.93
2019-04-07T17:46:34.843Z,13.48
2019-04-07T17:49:16.713Z,18.75
2019-04-07T17:52:09.945Z,29.52
2019-04-07T17:54:46.297Z,13.35
2019-04-07T17:57:27.788Z,12.90
2019-04-07T18:00:00.353Z,13.45
2019-04-07T18:02:34.851Z,11.15
2019-04-07T18:05:14.845Z,10.60
2019-04-07T18:07:56.518Z,8.88
2019-04-07T18:10:29.745Z,9.93
2019-04-07T18:13:02.993Z,13.25
2019-04-07T18:15:41.545Z,14.87
2019-04-07T18:18:30.416Z,26.73
2019-04-07T18:21:03.072Z,21.87
2019-04-07T18:23:38.531Z,22.07
2019-04-07T18:26:23.266Z,16.50
2019-04-07T18:28:58.578Z,16.55
2019-04-07T18:31:35.055Z,21.48
2019-04-07T18:34:26.992Z,23.83
2019-04-07T18:37:13.539Z,23.52
2019-04-07T18:39:52.345Z,18.20
2019-04-07T18:42:33.464Z,16.02
2019-04-07T18:45:12.528Z,18.10
2019-04-07T18:47:44.379Z,18.30
2019-04-07T18:50:36.942Z,22.40
2019-04-07T18:53:10.306Z,21.50
2019-04-07T18:55:48.876Z,19.52
2019-04-07T18:58:24.528Z,15.58
2019-04-07T19:01:00.765Z,14.98
2019-04-07T19:03:41.835Z,15.72
2019-04-07T19:06:26.464Z,17.00
2019-04-07T19:09:05.094Z,16.23
2019-04-07T19:12:05.111Z,19.50
2019-04-07T19:14:46.647Z,37.20
2019-04-07T19:17:30.340Z,46.25
2019-04-07T19:20:19.270Z,35.88
2019-04-07T19:23:01.207Z,31.90
2019-04-07T19:25:52.368Z,25.00
2019-04-07T19:28:34.220Z,22.70
2019-04-07T19:31:10.775Z,19.27
2019-04-07T19:33:56.662Z,18.60
2019-04-07T19:36:44.374Z,17.37
2019-04-07T19:39:21.433Z,14.63
2019-04-07T19:41:53.070Z,13.68
2019-04-07T19:44:38.375Z,14.18
2019-04-07T19:47:18.293Z,15.58
2019-04-07T19:49:53.119Z,14.28
2019-04-07T19:52:41.803Z,13.35
2019-04-07T19:55:22.770Z,14.28
2019-04-07T19:57:52.635Z,13.75
2019-04-07T20:00:37.316Z,15.03
2019-04-07T20:03:26.364Z,15.50
2019-04-07T20:05:59.049Z,13.83
2019-04-07T20:08:37.572Z,14.23
2019-04-07T20:11:10.152Z,15.05
2019-04-07T20:13:42.551Z,15.88
2019-04-07T20:16:16.345Z,17.55
2019-04-07T20:18:49.563Z,16.75
2019-04-07T20:21:33.957Z,16.73
2019-04-07T20:24:01.410Z,15.63
2019-04-07T20:26:52.565Z,15.90
2019-04-07T20:29:42.646Z,14.18
2019-04-07T20:32:13.164Z,13.98
2019-04-07T20:35:02.204Z,14.75
2019-04-07T20:37:34.918Z,15.23
2019-04-07T20:40:22.132Z,13.45
2019-04-07T20:42:57.089Z,15.75
2019-04-07T20:45:28.920Z,14.13
2019-04-07T20:48:03.088Z,15.65
2019-04-07T20:50:37.727Z,15.05
2019-04-07T20:53:16.579Z,14.83
2019-04-07T20:55:47.626Z,15.40
2019-04-07T20:58:43.796Z,14.53
2019-04-07T21:01:11.375Z,15.45
2019-04-07T21:03:49.298Z,15.83
2019-04-07T21:06:20.200Z,14.45
2019-04-07T21:09:09.921Z,15.28
2019-04-07T21:11:45.116Z,15.80
2019-04-07T21:14:17.161Z,16.37
2019-04-07T21:17:01.020Z,16.97
2019-04-07T21:19:36.510Z,17.35
2019-04-07T21:22:16.878Z,17.82
2019-04-07T21:25:01.117Z,15.53
2019-04-07T21:27:42.901Z,14.40
2019-04-07T21:30:16.375Z,16.25
2019-04-07T21:32:51.648Z,15.32
2019-04-07T21:35:23.361Z,14.95
2019-04-07T21:38:16.190Z,15.15
2019-04-07T21:41:04.364Z,14.68
2019-04-07T21:43:55.447Z,13.95
2019-04-07T21:46:42.949Z,13.95
2019-04-07T21:49:15.286Z,12.85
2019-04-07T21:51:48.330Z,12.73
2019-04-07T21:54:23.423Z,12.78
2019-04-07T21:57:00.334Z,13.03
2019-04-07T21:59:35.794Z,12.47
2019-04-07T22:02:11.681Z,12.95
2019-04-07T22:04:42.497Z,12.30
2019-04-07T22:07:15.359Z,12.88
2019-04-07T22:09:50.082Z,12.10
2019-04-07T22:12:20.383Z,12.60
2019-04-07T22:14:51.053Z,12.20
2019-04-07T22:17:22.012Z,12.05
2019-04-07T22:19:53.148Z,10.75
2019-04-07T22:22:26.602Z,10.70
2019-04-07T22:24:56.521Z,11.22
2019-04-07T22:27:28.676Z,12.03
2019-04-07T22:29:59.985Z,10.72
2019-04-07T22:32:31.642Z,10.98
2019-04-07T22:35:04.796Z,10.70
2019-04-07T22:37:35.626Z,10.98
2019-04-07T22:40:21.385Z,11.00
2019-04-07T22:42:52.456Z,11.40
2019-04-07T22:45:26.423Z,11.83
2019-04-07T22:47:55.789Z,11.18
2019-04-07T22:50:27.262Z,10.58
2019-04-07T22:52:58.219Z,11.38
2019-04-07T22:55:29.210Z,10.13
2019-04-07T22:58:00.560Z,10.65
2019-04-07T23:00:31.499Z,10.20
2019-04-07T23:03:02.475Z,9.20
2019-04-07T23:05:33.917Z,11.00
2019-04-07T23:08:04.889Z,11.88
2019-04-07T23:10:36.069Z,10.13
2019-04-07T23:13:07.706Z,11.25
2019-04-07T23:15:44.298Z,11.28
2019-04-07T23:18:11.614Z,9.90
2019-04-07T23:20:42.716Z,10.25
2019-04-07T23:23:14.431Z,10.93
2019-04-07T23:25:46.081Z,10.58
2019-04-07T23:28:17.076Z,10.72
2019-04-07T23:30:48.132Z,9.55
2019-04-07T23:33:19.071Z,8.90
2019-04-07T23:35:49.944Z,10.32
2019-04-07T23:38:21.889Z,10.63
2019-04-07T23:40:53.479Z,13.70
2019-04-07T23:43:24.974Z,12.20
2019-04-07T23:45:55.988Z,11.22
2019-04-07T23:48:27.090Z,8.98
2019-04-07T23:50:58.240Z,9.75
2019-04-07T23:54:07.208Z,10.10
2019-04-07T23:56:39.339Z,9.83
2019-04-07T23:59:12.056Z,8.85
